Flight Track Log - Related Links

Times and Time Zones

All times are in EDT time to prevent confusion due to time zone crossing. See the CSN3342 flight status page for this flight to view local times or setup timezone preferences in your user account.

Time Position Orientation Groundspeed Altitude Reporting Facility
EDT Latitude Longitude Course Direction KTS MPH feet Rate Location/Type
Tue 06:59:32 AM 21.6688 108.9885 321° Northwest  Level Estimated
Tue 07:00:32 AM 21.7293 108.9364 321° Northwest  Level Estimated
Tue 07:01:32 AM 21.7899 108.8842 321° Northwest  Level Estimated
Tue 07:02:32 AM 21.8504 108.8319 321° Northwest  Level Estimated
Tue 07:03:32 AM 21.9109 108.7797 321° Northwest  Level Estimated
Tue 07:04:32 AM 21.9713 108.7273 321° Northwest  Level Estimated
Tue 07:05:32 AM 22.0318 108.6749 321° Northwest  Level Estimated
Tue 07:06:32 AM 22.0922 108.6225 321° Northwest  Level Estimated
Tue 07:07:32 AM 22.1526 108.5701 321° Northwest  Level Estimated
Tue 07:08:32 AM 22.2130 108.5175 321° Northwest  Level Estimated
Tue 07:09:32 AM 22.2734 108.4650 321° Northwest  Level Estimated
Tue 07:10:32 AM 22.3338 108.4124 321° Northwest  Level Estimated
Tue 07:11:32 AM 22.3941 108.3597 321° Northwest  Level Estimated
Tue 07:12:32 AM 22.4545 108.3070 321° Northwest  Level Estimated
Tue 07:13:32 AM 22.5148 108.2543 321° Northwest  Level Estimated
Tue 07:14:32 AM 22.5751 108.2015 321° Northwest  Level Estimated
Tue 07:15:32 AM 22.6354 108.1487 141° Southeast  Level Estimated
Tue 07:16:32 AM 22.5751 108.2015 321° Northwest  Level Estimated
Tue 07:17:32 AM 22.6354 108.1487 141° Southeast  Level Estimated
Tue 07:18:32 AM 22.5751 108.2015 321° Northwest  Level Estimated
Tue 07:19:32 AM 22.6354 108.1487 141° Southeast  Level Estimated
Tue 07:20:32 AM 22.5751 108.2015 321° Northwest  Level Estimated
Tue 07:21:32 AM 22.6354 108.1487 141° Southeast  Level Estimated
Tue 07:22:32 AM 22.5751 108.2015 321° Northwest  Level Estimated
Tue 07:23:32 AM 22.6354 108.1487 141° Southeast  Level Estimated
Tue 07:24:32 AM 22.5751 108.2015 321° Northwest  Level Estimated
Tue 07:25:32 AM 22.6354 108.1487 141° Southeast  Level Estimated
Tue 07:26:32 AM 22.5751 108.2015 321° Northwest  Level Estimated
Tue 07:27:32 AM 22.6354 108.1487 141° Southeast  Level Estimated
Tue 07:28:32 AM 22.5751 108.2015 321° Northwest  Level Estimated
Tue 07:29:32 AM 22.6354 108.1487 321° Northwest  Level Estimated

Login

Don't have an account? Register now (free) for customized features, flight alerts, and more!